createdAt,value
2019-05-13T00:00:39.673Z,12.88
2019-05-13T00:01:44.124Z,12.86
2019-05-13T00:02:48.884Z,12.85
2019-05-13T00:03:54.157Z,12.82
2019-05-13T00:04:58.937Z,12.80
2019-05-13T00:06:04.218Z,12.78
2019-05-13T00:07:09.026Z,12.75
2019-05-13T00:08:14.058Z,12.74
2019-05-13T00:09:19.060Z,12.71
2019-05-13T00:10:24.341Z,12.71
2019-05-13T00:11:29.240Z,12.70
2019-05-13T00:12:35.477Z,12.66
2019-05-13T00:13:39.853Z,12.64
2019-05-13T00:14:44.272Z,12.63
2019-05-13T00:15:49.091Z,12.62
2019-05-13T00:16:53.777Z,12.59
2019-05-13T00:17:58.577Z,12.60
2019-05-13T00:19:04.152Z,12.60
2019-05-13T00:20:09.292Z,12.58
2019-05-13T00:21:14.071Z,12.56
2019-05-13T00:22:18.935Z,12.55
2019-05-13T00:23:23.435Z,12.55
2019-05-13T00:24:28.218Z,12.54
2019-05-13T00:25:33.870Z,12.53
2019-05-13T00:26:39.113Z,12.51
2019-05-13T00:27:44.519Z,12.49
2019-05-13T00:28:49.467Z,12.48
2019-05-13T00:29:53.642Z,12.47
2019-05-13T00:30:58.673Z,12.44
2019-05-13T00:32:04.735Z,12.44
2019-05-13T00:33:09.413Z,12.43
2019-05-13T00:34:14.483Z,12.41
2019-05-13T00:35:19.417Z,12.38
2019-05-13T00:36:24.274Z,12.37
2019-05-13T00:37:30.205Z,12.36
2019-05-13T00:38:34.544Z,12.35
2019-05-13T00:39:39.317Z,12.34
2019-05-13T00:40:44.518Z,12.32
2019-05-13T00:41:49.486Z,12.31
2019-05-13T00:42:54.548Z,12.29
2019-05-13T00:43:59.432Z,12.29
2019-05-13T00:45:07.324Z,12.24
2019-05-13T00:46:14.088Z,12.24
2019-05-13T00:47:18.196Z,12.26
2019-05-13T00:48:23.495Z,12.22
2019-05-13T00:49:27.768Z,12.21
2019-05-13T00:50:33.532Z,12.19
2019-05-13T00:51:37.871Z,12.19
2019-05-13T00:52:44.876Z,12.13
2019-05-13T00:53:48.826Z,12.13
2019-05-13T00:54:53.616Z,12.12
2019-05-13T00:55:57.853Z,12.13
2019-05-13T00:57:04.150Z,12.13
2019-05-13T00:58:08.630Z,12.12
2019-05-13T00:59:14.179Z,12.11
2019-05-13T01:00:19.455Z,12.12
2019-05-13T01:01:24.364Z,12.04
2019-05-13T01:02:28.684Z,12.07
2019-05-13T01:03:33.919Z,12.07
2019-05-13T01:04:39.005Z,12.06
2019-05-13T01:05:44.439Z,12.05
2019-05-13T01:06:48.834Z,12.03
2019-05-13T01:07:53.846Z,12.03
2019-05-13T01:08:59.228Z,11.96
2019-05-13T01:10:05.823Z,11.94
2019-05-13T01:11:09.932Z,11.94
2019-05-13T01:12:14.657Z,11.94
2019-05-13T01:13:18.834Z,11.94
2019-05-13T01:14:23.675Z,11.92
2019-05-13T01:15:27.975Z,11.93
2019-05-13T01:16:34.091Z,11.93
2019-05-13T01:17:38.472Z,11.91
2019-05-13T01:18:43.356Z,11.91
2019-05-13T01:19:47.534Z,11.89
2019-05-13T01:20:53.882Z,11.89
2019-05-13T01:21:58.212Z,11.73
2019-05-13T01:23:03.652Z,11.74
2019-05-13T01:24:08.342Z,11.74
2019-05-13T01:25:14.682Z,11.76
2019-05-13T01:26:19.021Z,11.78
2019-05-13T01:27:23.979Z,11.79
2019-05-13T01:28:28.261Z,11.81
2019-05-13T01:29:34.346Z,11.74
2019-05-13T01:30:38.736Z,11.76
2019-05-13T01:31:43.857Z,11.71
2019-05-13T01:32:48.153Z,11.69
2019-05-13T01:33:53.766Z,11.64
2019-05-13T01:34:58.081Z,11.64
2019-05-13T01:36:05.309Z,11.65
2019-05-13T01:37:08.759Z,11.65
2019-05-13T01:38:13.679Z,11.66
2019-05-13T01:39:17.939Z,11.66
2019-05-13T01:40:23.982Z,11.60
2019-05-13T01:41:28.310Z,11.60
2019-05-13T01:42:33.663Z,11.61
2019-05-13T01:43:38.065Z,11.63
2019-05-13T01:44:43.755Z,11.61
2019-05-13T01:45:48.049Z,11.61
2019-05-13T01:46:53.755Z,11.62
2019-05-13T01:47:58.038Z,11.60
2019-05-13T01:49:04.819Z,11.62
2019-05-13T01:50:08.782Z,11.63
2019-05-13T01:51:13.922Z,11.62
2019-05-13T01:52:18.172Z,11.64
2019-05-13T01:53:24.357Z,11.66
2019-05-13T01:54:28.722Z,11.68
2019-05-13T01:55:34.308Z,11.70
2019-05-13T01:56:38.529Z,11.71
2019-05-13T01:57:44.362Z,11.67
2019-05-13T01:58:48.893Z,11.67
2019-05-13T01:59:53.883Z,11.69
2019-05-13T02:00:58.706Z,11.60
2019-05-13T02:02:03.828Z,11.60
2019-05-13T02:03:08.023Z,11.58
2019-05-13T02:04:14.166Z,11.55
2019-05-13T02:05:19.504Z,11.55
2019-05-13T02:06:24.332Z,11.58
2019-05-13T02:07:28.610Z,11.56
2019-05-13T02:08:33.839Z,11.52
2019-05-13T02:09:38.194Z,11.50
2019-05-13T02:10:58.007Z,11.52
2019-05-13T02:12:04.557Z,11.54
2019-05-13T02:13:08.852Z,11.53
2019-05-13T02:14:13.347Z,11.48
2019-05-13T02:15:18.113Z,11.49
2019-05-13T02:16:24.391Z,11.48
2019-05-13T02:17:29.152Z,11.50
2019-05-13T02:18:34.236Z,11.52
2019-05-13T02:19:39.156Z,11.50
2019-05-13T02:20:44.392Z,11.48
2019-05-13T02:21:49.253Z,11.49
2019-05-13T02:22:53.661Z,11.48
2019-05-13T02:23:58.421Z,11.50
2019-05-13T02:25:04.423Z,11.48
2019-05-13T02:26:09.081Z,11.47
2019-05-13T02:27:14.183Z,11.45
2019-05-13T02:28:19.023Z,11.42
2019-05-13T02:29:24.480Z,11.42
2019-05-13T02:30:29.318Z,11.40
2019-05-13T02:31:45.224Z,11.42
2019-05-13T02:32:42.558Z,11.42
2019-05-13T02:33:45.815Z,11.34
2019-05-13T02:34:53.233Z,11.36
2019-05-13T02:35:56.415Z,11.38
2019-05-13T02:37:03.172Z,11.38
2019-05-13T02:38:19.732Z,11.39
2019-05-13T02:39:13.593Z,11.39
2019-05-13T02:40:17.754Z,11.32
2019-05-13T02:41:22.992Z,11.26
2019-05-13T02:42:27.228Z,11.29
2019-05-13T02:43:33.301Z,11.30
2019-05-13T02:44:38.132Z,11.32
2019-05-13T02:45:43.124Z,11.33
2019-05-13T02:46:47.334Z,11.26
2019-05-13T02:47:52.299Z,11.20
2019-05-13T02:48:56.905Z,11.14
2019-05-13T02:50:04.829Z,11.16
2019-05-13T02:51:07.590Z,11.15
2019-05-13T02:52:13.298Z,11.13
2019-05-13T02:53:17.803Z,11.14
2019-05-13T02:54:22.976Z,11.14
2019-05-13T02:55:27.270Z,11.11
2019-05-13T02:56:33.073Z,11.09
2019-05-13T02:57:37.533Z,11.07
2019-05-13T02:58:42.968Z,11.04
2019-05-13T02:59:47.338Z,11.06
2019-05-13T03:00:53.325Z,11.06
2019-05-13T03:01:58.076Z,11.09
2019-05-13T03:03:03.430Z,11.11
2019-05-13T03:04:07.815Z,11.11
2019-05-13T03:05:13.655Z,11.14
2019-05-13T03:06:18.290Z,11.13
2019-05-13T03:07:23.524Z,11.15
2019-05-13T03:08:45.017Z,11.15
2019-05-13T03:09:34.441Z,11.14
2019-05-13T03:10:38.677Z,11.15
2019-05-13T03:11:43.450Z,11.12
2019-05-13T03:12:47.604Z,11.12
2019-05-13T03:13:53.159Z,11.11
2019-05-13T03:14:57.545Z,11.12
2019-05-13T03:16:06.344Z,11.12
2019-05-13T03:17:22.348Z,11.13
2019-05-13T03:18:28.494Z,11.12
2019-05-13T03:19:33.326Z,11.12
2019-05-13T03:20:38.176Z,11.10
2019-05-13T03:21:43.148Z,11.10
2019-05-13T03:22:47.958Z,11.09
2019-05-13T03:23:52.722Z,11.08
2019-05-13T03:24:57.626Z,11.08
2019-05-13T03:26:02.990Z,11.08
2019-05-13T03:27:07.892Z,11.09
2019-05-13T03:28:13.538Z,11.08
2019-05-13T03:29:18.539Z,11.08
2019-05-13T03:30:25.600Z,11.08
2019-05-13T03:31:35.185Z,11.06
2019-05-13T03:32:43.610Z,11.07
2019-05-13T03:33:46.168Z,11.06
2019-05-13T03:34:47.441Z,11.05
2019-05-13T03:35:55.728Z,11.03
2019-05-13T03:36:58.406Z,11.02
2019-05-13T03:38:03.835Z,11.01
2019-05-13T03:39:12.479Z,11.00
2019-05-13T03:40:14.514Z,11.00
2019-05-13T03:41:18.744Z,10.99
2019-05-13T03:42:25.801Z,10.97
2019-05-13T03:43:32.677Z,10.96
2019-05-13T03:44:38.666Z,10.95
2019-05-13T03:45:43.440Z,10.84
2019-05-13T03:46:48.271Z,10.94
2019-05-13T03:47:52.835Z,10.91
2019-05-13T03:48:57.622Z,10.90
2019-05-13T03:50:03.465Z,10.81
2019-05-13T03:51:08.649Z,10.79
2019-05-13T03:52:14.503Z,10.81
2019-05-13T03:53:23.118Z,10.82
2019-05-13T03:54:26.088Z,10.84
2019-05-13T03:55:32.894Z,10.83
2019-05-13T03:56:36.785Z,10.83
2019-05-13T03:57:42.652Z,10.83
2019-05-13T03:58:47.104Z,10.79
2019-05-13T03:59:52.660Z,10.78
2019-05-13T04:00:57.131Z,10.78
2019-05-13T04:02:02.740Z,10.77
2019-05-13T04:03:08.138Z,10.78
2019-05-13T04:04:13.088Z,10.78
2019-05-13T04:05:17.255Z,10.78
2019-05-13T04:06:23.213Z,10.77
2019-05-13T04:07:27.954Z,10.79
2019-05-13T04:08:32.945Z,10.78
2019-05-13T04:09:37.238Z,10.74
2019-05-13T04:10:42.351Z,10.74
2019-05-13T04:11:46.639Z,10.73
2019-05-13T04:12:52.706Z,10.72
2019-05-13T04:13:57.376Z,10.74
2019-05-13T04:15:03.560Z,10.73
2019-05-13T04:16:08.102Z,10.73
2019-05-13T04:17:13.210Z,10.74
2019-05-13T04:18:17.364Z,10.73
2019-05-13T04:19:23.523Z,10.70
2019-05-13T04:20:28.212Z,10.65
2019-05-13T04:21:33.819Z,10.62
2019-05-13T04:22:38.230Z,10.63
2019-05-13T04:23:43.257Z,10.66
2019-05-13T04:24:47.691Z,10.66
2019-05-13T04:25:53.628Z,10.66
2019-05-13T04:27:02.613Z,10.60
2019-05-13T04:28:06.004Z,10.62
2019-05-13T04:29:13.000Z,10.61
2019-05-13T04:30:16.724Z,10.63
2019-05-13T04:31:22.780Z,10.64
2019-05-13T04:32:29.083Z,10.62
2019-05-13T04:33:33.809Z,10.62
2019-05-13T04:34:41.535Z,10.59
2019-05-13T04:35:44.766Z,10.61
2019-05-13T04:36:52.028Z,10.63
2019-05-13T04:37:55.387Z,10.63
2019-05-13T04:39:03.224Z,10.66
2019-05-13T04:40:07.755Z,10.63
2019-05-13T04:41:12.617Z,10.65
2019-05-13T04:42:16.748Z,10.67
2019-05-13T04:43:23.453Z,10.66
2019-05-13T04:44:27.562Z,10.65
2019-05-13T04:45:33.141Z,10.65
2019-05-13T04:46:37.484Z,10.62
2019-05-13T04:47:43.251Z,10.64
2019-05-13T04:48:47.755Z,10.66
2019-05-13T04:49:53.333Z,10.66
2019-05-13T04:50:57.825Z,10.69
2019-05-13T04:52:03.556Z,10.71
2019-05-13T04:53:07.870Z,10.74
2019-05-13T04:54:13.276Z,10.75
2019-05-13T04:55:17.505Z,10.78
2019-05-13T04:56:22.573Z,10.79
2019-05-13T04:57:26.891Z,10.82
2019-05-13T04:58:32.345Z,10.83
2019-05-13T04:59:40.343Z,10.81
2019-05-13T05:00:49.882Z,10.83
2019-05-13T05:01:59.801Z,10.83
2019-05-13T05:03:09.022Z,10.77
2019-05-13T05:04:34.822Z,10.72
2019-05-13T05:05:48.524Z,10.74
2019-05-13T05:07:03.157Z,10.72
2019-05-13T05:08:17.408Z,10.73
2019-05-13T05:09:40.324Z,10.75
2019-05-13T05:11:18.126Z,10.78
2019-05-13T05:12:31.878Z,10.80
2019-05-13T05:13:38.369Z,10.76
2019-05-13T05:15:08.469Z,10.76
2019-05-13T05:16:33.408Z,10.78
2019-05-13T05:17:44.066Z,10.75
2019-05-13T05:19:14.486Z,10.70
2019-05-13T05:20:46.559Z,10.73
2019-05-13T05:22:02.621Z,10.70
2019-05-13T05:23:24.404Z,10.65
2019-05-13T05:24:41.402Z,10.66
2019-05-13T05:26:12.607Z,10.65
2019-05-13T05:27:27.602Z,10.68
2019-05-13T05:28:56.298Z,10.68
2019-05-13T05:30:34.101Z,10.71
2019-05-13T05:31:41.914Z,10.68
2019-05-13T05:33:11.308Z,10.70
2019-05-13T05:34:44.205Z,10.70
2019-05-13T05:35:54.761Z,10.76
2019-05-13T05:37:14.890Z,10.80
2019-05-13T05:38:43.266Z,10.84
2019-05-13T05:39:48.008Z,10.81
2019-05-13T05:40:52.540Z,10.88
2019-05-13T05:41:58.285Z,10.89
2019-05-13T05:43:02.823Z,10.91
2019-05-13T05:44:08.443Z,10.94
2019-05-13T05:45:12.801Z,11.00
2019-05-13T05:46:17.364Z,11.07
2019-05-13T05:47:21.888Z,11.10
2019-05-13T05:48:26.412Z,11.14
2019-05-13T05:49:32.004Z,11.16
2019-05-13T05:50:37.177Z,11.22
2019-05-13T05:51:41.952Z,11.26
2019-05-13T05:52:46.602Z,11.34
2019-05-13T05:53:51.662Z,11.22
2019-05-13T05:54:56.327Z,11.32
2019-05-13T05:56:02.362Z,11.33
2019-05-13T05:57:07.715Z,11.36
2019-05-13T05:58:12.384Z,11.39
2019-05-13T05:59:17.018Z,11.45
2019-05-13T06:00:22.037Z,11.50
2019-05-13T06:01:26.723Z,11.56
2019-05-13T06:02:32.223Z,11.52
2019-05-13T06:03:37.146Z,11.62
2019-05-13T06:04:43.104Z,11.63
2019-05-13T06:05:51.173Z,11.57
2019-05-13T06:06:55.780Z,11.59
2019-05-13T06:08:01.967Z,11.62
2019-05-13T06:09:06.873Z,11.60
2019-05-13T06:10:11.627Z,11.70
2019-05-13T06:11:16.024Z,11.76
2019-05-13T06:12:21.367Z,11.72
2019-05-13T06:13:26.790Z,11.77
2019-05-13T06:14:32.620Z,11.78
2019-05-13T06:15:38.371Z,11.84
2019-05-13T06:16:42.930Z,11.87
2019-05-13T06:17:47.484Z,11.90
2019-05-13T06:18:52.375Z,11.89
2019-05-13T06:19:56.849Z,11.93
2019-05-13T06:21:01.821Z,11.98
2019-05-13T06:22:06.354Z,11.99
2019-05-13T06:23:11.531Z,12.03
2019-05-13T06:24:16.268Z,12.07
2019-05-13T06:25:23.466Z,12.07
2019-05-13T06:26:27.116Z,12.07
2019-05-13T06:27:31.861Z,12.10
2019-05-13T06:28:36.341Z,12.11
2019-05-13T06:29:42.337Z,12.12
2019-05-13T06:30:47.168Z,12.13
2019-05-13T06:31:52.072Z,12.14
2019-05-13T06:32:56.529Z,12.15
2019-05-13T06:34:02.056Z,12.20
2019-05-13T06:35:06.518Z,12.25
2019-05-13T06:36:11.443Z,12.28
2019-05-13T06:37:15.821Z,12.32
2019-05-13T06:38:22.589Z,12.36
2019-05-13T06:39:26.709Z,12.38
2019-05-13T06:40:31.928Z,12.43
2019-05-13T06:41:36.332Z,12.47
2019-05-13T06:42:41.901Z,12.46
2019-05-13T06:43:46.228Z,12.44
2019-05-13T06:44:51.471Z,12.49
2019-05-13T06:45:55.885Z,12.48
2019-05-13T06:47:02.652Z,12.45
2019-05-13T06:48:06.708Z,12.49
2019-05-13T06:49:12.226Z,12.49
2019-05-13T06:50:17.717Z,12.55
2019-05-13T06:51:22.337Z,12.59
2019-05-13T06:52:26.738Z,12.65
2019-05-13T06:53:32.385Z,12.70
2019-05-13T06:54:36.892Z,12.74
2019-05-13T06:55:41.899Z,12.78
2019-05-13T06:56:46.366Z,12.83
2019-05-13T06:57:51.758Z,12.87
2019-05-13T06:58:57.286Z,12.92
2019-05-13T07:00:02.005Z,12.94
2019-05-13T07:01:06.643Z,13.03
2019-05-13T07:02:12.439Z,13.08
2019-05-13T07:03:16.884Z,13.12
2019-05-13T07:04:22.016Z,13.17
2019-05-13T07:05:26.421Z,13.16
2019-05-13T07:06:32.317Z,13.20
2019-05-13T07:07:36.902Z,13.20
2019-05-13T07:08:41.835Z,13.22
2019-05-13T07:09:46.276Z,13.22
2019-05-13T07:10:52.034Z,13.23
2019-05-13T07:11:56.990Z,13.27
2019-05-13T07:13:02.273Z,13.33
2019-05-13T07:14:06.787Z,13.35
2019-05-13T07:15:11.669Z,13.40
2019-05-13T07:16:16.299Z,13.46
2019-05-13T07:17:22.272Z,13.50
2019-05-13T07:18:27.904Z,13.53
2019-05-13T07:19:32.697Z,13.55
2019-05-13T07:20:37.079Z,13.58
2019-05-13T07:21:41.946Z,13.61
2019-05-13T07:22:46.362Z,13.65
2019-05-13T07:23:54.745Z,13.65
2019-05-13T07:24:58.000Z,13.70
2019-05-13T07:26:02.545Z,13.72
2019-05-13T07:27:07.178Z,13.73
2019-05-13T07:28:12.746Z,13.77
2019-05-13T07:29:17.675Z,13.79
2019-05-13T07:30:42.341Z,13.84
2019-05-13T07:31:46.156Z,13.89
2019-05-13T07:32:52.393Z,13.95
2019-05-13T07:33:57.055Z,13.99
2019-05-13T07:35:03.894Z,14.00
2019-05-13T07:36:07.888Z,14.04
2019-05-13T07:37:12.486Z,14.07
2019-05-13T07:38:17.048Z,14.10
2019-05-13T07:39:22.401Z,14.13
2019-05-13T07:40:26.798Z,14.15
2019-05-13T07:41:38.991Z,14.17
2019-05-13T07:42:37.439Z,14.19
2019-05-13T07:43:42.756Z,14.24
2019-05-13T07:44:47.170Z,14.25
2019-05-13T07:45:51.782Z,14.29
2019-05-13T07:46:56.132Z,14.36
2019-05-13T07:48:01.469Z,14.36
2019-05-13T07:49:05.940Z,14.43
2019-05-13T07:50:12.698Z,14.48
2019-05-13T07:51:16.528Z,14.50
2019-05-13T07:52:22.787Z,14.49
2019-05-13T07:53:28.391Z,14.53
2019-05-13T07:54:33.346Z,14.53
2019-05-13T07:55:37.841Z,14.55
2019-05-13T07:56:42.796Z,14.58
2019-05-13T07:57:47.119Z,14.64
2019-05-13T07:58:52.503Z,14.70
2019-05-13T07:59:56.948Z,14.75
2019-05-13T08:01:02.383Z,14.77
2019-05-13T08:02:07.083Z,14.78
2019-05-13T08:03:12.294Z,14.84
2019-05-13T08:04:22.222Z,14.89
2019-05-13T08:05:23.195Z,14.95
2019-05-13T08:06:27.587Z,14.97
2019-05-13T08:07:32.130Z,15.00
2019-05-13T08:08:36.486Z,15.03
2019-05-13T08:09:41.895Z,15.08
2019-05-13T08:10:46.413Z,15.10
2019-05-13T08:12:05.471Z,15.14
2019-05-13T08:12:57.036Z,15.17
2019-05-13T08:14:01.908Z,15.21
2019-05-13T08:15:07.189Z,15.24
2019-05-13T08:16:12.329Z,15.26
2019-05-13T08:17:16.805Z,15.31
2019-05-13T08:18:22.348Z,15.35
2019-05-13T08:19:26.694Z,15.40
2019-05-13T08:20:32.748Z,15.43
2019-05-13T08:21:37.267Z,15.46
2019-05-13T08:22:42.561Z,15.48
2019-05-13T08:23:46.948Z,15.47
2019-05-13T08:24:54.135Z,15.51
2019-05-13T08:25:57.705Z,15.55
2019-05-13T08:27:02.586Z,15.62
2019-05-13T08:28:07.046Z,15.66
2019-05-13T08:29:11.602Z,15.71
2019-05-13T08:30:18.225Z,15.73
2019-05-13T08:31:22.281Z,15.74
2019-05-13T08:32:26.640Z,15.77
2019-05-13T08:33:32.213Z,15.80
2019-05-13T08:34:36.705Z,15.86
2019-05-13T08:35:41.773Z,15.91
2019-05-13T08:36:46.383Z,15.98
2019-05-13T08:37:52.037Z,16.03
2019-05-13T08:38:56.573Z,16.07
2019-05-13T08:40:01.700Z,16.12
2019-05-13T08:41:09.789Z,16.22
2019-05-13T08:42:18.966Z,16.31
2019-05-13T08:43:19.283Z,16.38
2019-05-13T08:44:23.836Z,16.44
2019-05-13T08:45:28.236Z,16.52
2019-05-13T08:46:34.707Z,16.57
2019-05-13T08:47:39.101Z,16.64
2019-05-13T08:48:43.712Z,16.69
2019-05-13T08:49:48.069Z,16.73
2019-05-13T08:50:52.672Z,16.81
2019-05-13T08:51:57.142Z,16.83
2019-05-13T08:53:01.932Z,16.91
2019-05-13T08:54:06.308Z,16.97
2019-05-13T08:55:13.646Z,17.02
2019-05-13T08:56:16.872Z,17.06
2019-05-13T08:57:22.153Z,17.13
2019-05-13T08:58:27.794Z,17.14
2019-05-13T08:59:32.369Z,17.17
2019-05-13T09:00:52.797Z,17.22
2019-05-13T09:01:57.710Z,17.29
2019-05-13T09:03:06.004Z,17.40
2019-05-13T09:04:08.436Z,17.45
2019-05-13T09:05:14.074Z,17.45
2019-05-13T09:06:18.650Z,17.50
2019-05-13T09:07:24.382Z,17.53
2019-05-13T09:08:31.960Z,17.54
2019-05-13T09:09:36.248Z,17.57
2019-05-13T09:10:43.913Z,17.59
2019-05-13T09:11:48.314Z,17.60
2019-05-13T09:12:53.040Z,17.62
2019-05-13T09:13:57.437Z,17.63
2019-05-13T09:15:03.282Z,17.66
2019-05-13T09:16:08.089Z,17.66
2019-05-13T09:17:12.736Z,17.69
2019-05-13T09:18:17.089Z,17.70
2019-05-13T09:19:21.702Z,17.70
2019-05-13T09:20:26.090Z,17.73
2019-05-13T09:21:31.819Z,17.70
2019-05-13T09:22:36.506Z,17.70
2019-05-13T09:23:41.459Z,17.72
2019-05-13T09:24:45.872Z,17.67
2019-05-13T09:25:52.147Z,17.66
2019-05-13T09:26:56.481Z,17.67
2019-05-13T09:28:02.660Z,17.67
2019-05-13T09:29:07.281Z,17.70
2019-05-13T09:30:12.035Z,17.74
2019-05-13T09:31:16.476Z,17.76
2019-05-13T09:32:21.628Z,17.80
2019-05-13T09:33:26.125Z,17.85
2019-05-13T09:34:32.766Z,17.88
2019-05-13T09:35:37.100Z,17.93
2019-05-13T09:36:41.977Z,17.97
2019-05-13T09:37:46.407Z,18.00
2019-05-13T09:38:52.516Z,18.02
2019-05-13T09:39:57.064Z,18.07
2019-05-13T09:41:02.120Z,18.10
2019-05-13T09:42:06.621Z,18.12
2019-05-13T09:43:11.727Z,18.19
2019-05-13T09:44:16.109Z,18.23
2019-05-13T09:45:21.601Z,18.23
2019-05-13T09:46:26.121Z,18.23
2019-05-13T09:47:32.233Z,18.26
2019-05-13T09:48:37.095Z,18.30
2019-05-13T09:49:42.193Z,18.35
2019-05-13T09:50:46.659Z,18.39
2019-05-13T09:51:52.282Z,18.46
2019-05-13T09:52:57.206Z,18.50
2019-05-13T09:54:01.835Z,18.54
2019-05-13T09:55:24.481Z,18.54
2019-05-13T09:56:13.963Z,18.61
2019-05-13T09:57:18.318Z,18.69
2019-05-13T09:58:23.172Z,18.74
2019-05-13T09:59:27.542Z,18.78
2019-05-13T10:00:32.430Z,18.83
2019-05-13T10:01:37.133Z,18.87
2019-05-13T10:02:42.611Z,18.92
2019-05-13T10:03:57.002Z,18.97
2019-05-13T10:04:54.920Z,19.03
2019-05-13T10:06:02.001Z,19.06
2019-05-13T10:07:05.897Z,19.06
2019-05-13T10:08:12.493Z,19.13
2019-05-13T10:09:17.189Z,19.14
2019-05-13T10:10:22.412Z,19.17
2019-05-13T10:11:27.094Z,19.22
2019-05-13T10:12:32.613Z,19.29
2019-05-13T10:13:37.657Z,19.36
2019-05-13T10:14:42.116Z,19.37
2019-05-13T10:16:52.962Z,19.43
2019-05-13T10:17:57.533Z,19.47
2019-05-13T10:19:02.761Z,19.49
2019-05-13T10:20:08.959Z,19.48
2019-05-13T10:21:13.343Z,19.52
2019-05-13T10:22:17.902Z,19.50
2019-05-13T10:23:22.400Z,19.44
2019-05-13T10:24:26.931Z,19.39
2019-05-13T10:25:31.383Z,19.38
2019-05-13T10:26:35.925Z,19.39
2019-05-13T10:27:41.843Z,19.41
2019-05-13T10:28:46.605Z,19.43
2019-05-13T10:29:51.765Z,19.40
2019-05-13T10:30:56.954Z,19.33
2019-05-13T10:32:02.606Z,19.36
2019-05-13T10:33:08.465Z,19.38
2019-05-13T10:34:14.096Z,19.43
2019-05-13T10:35:19.009Z,19.48
2019-05-13T10:36:23.421Z,19.49
2019-05-13T10:37:28.001Z,19.54
2019-05-13T10:38:32.820Z,19.58
2019-05-13T10:39:37.457Z,19.60
2019-05-13T10:40:43.299Z,19.63
2019-05-13T10:41:48.072Z,19.66
2019-05-13T10:42:52.526Z,19.66
2019-05-13T10:43:57.065Z,19.71
2019-05-13T10:45:02.469Z,19.75
2019-05-13T10:46:07.336Z,19.79
2019-05-13T10:47:12.175Z,19.81
2019-05-13T10:48:16.916Z,19.86
2019-05-13T10:49:22.134Z,19.90
2019-05-13T10:50:28.061Z,19.91
2019-05-13T10:51:32.908Z,19.90
2019-05-13T10:52:37.580Z,19.91
2019-05-13T10:53:42.824Z,19.92
2019-05-13T10:54:47.485Z,19.93
2019-05-13T10:55:52.447Z,19.95
2019-05-13T10:56:59.761Z,19.98
2019-05-13T10:58:03.169Z,19.96
2019-05-13T10:59:07.719Z,19.96
2019-05-13T11:00:12.486Z,19.99
2019-05-13T11:01:17.160Z,20.00
2019-05-13T11:02:22.170Z,20.04
2019-05-13T11:03:26.860Z,20.07
2019-05-13T11:04:32.732Z,20.13
2019-05-13T11:05:42.075Z,20.18
2019-05-13T11:06:44.896Z,20.21
2019-05-13T11:07:51.714Z,20.20
2019-05-13T11:08:55.609Z,20.24
2019-05-13T11:10:02.378Z,20.25
2019-05-13T11:11:06.582Z,20.33
2019-05-13T11:12:12.197Z,20.37
2019-05-13T11:13:17.389Z,20.40
2019-05-13T11:14:23.346Z,20.41
2019-05-13T11:15:32.781Z,20.40
2019-05-13T11:16:34.208Z,20.43
2019-05-13T11:17:38.707Z,20.51
2019-05-13T11:18:43.405Z,20.46
2019-05-13T11:19:47.789Z,20.39
2019-05-13T11:20:53.408Z,20.42
2019-05-13T11:21:57.959Z,20.47
2019-05-13T11:23:02.784Z,20.51
2019-05-13T11:24:07.280Z,20.50
2019-05-13T11:25:13.644Z,20.52
2019-05-13T11:26:18.033Z,20.40
2019-05-13T11:27:23.471Z,20.42
2019-05-13T11:28:28.030Z,20.43
2019-05-13T11:29:32.848Z,20.42
2019-05-13T11:30:37.333Z,20.44
2019-05-13T11:31:42.754Z,20.41
2019-05-13T11:32:47.559Z,20.42
2019-05-13T11:33:52.409Z,20.41
2019-05-13T11:34:56.779Z,20.43
2019-05-13T11:36:03.243Z,20.43
2019-05-13T11:37:07.388Z,20.50
2019-05-13T11:38:12.309Z,20.51
2019-05-13T11:39:16.792Z,20.55
2019-05-13T11:40:22.462Z,20.59
2019-05-13T11:41:27.012Z,20.56
2019-05-13T11:42:32.767Z,20.56
2019-05-13T11:43:37.452Z,20.59
2019-05-13T11:44:42.887Z,20.63
2019-05-13T11:45:47.477Z,20.70
2019-05-13T11:46:53.176Z,20.73
2019-05-13T11:47:57.736Z,20.76
2019-05-13T11:49:02.713Z,20.82
2019-05-13T11:50:07.451Z,20.88
2019-05-13T11:51:13.141Z,20.92
2019-05-13T11:52:17.725Z,20.92
2019-05-13T11:53:38.445Z,20.96
2019-05-13T11:54:28.512Z,20.99
2019-05-13T11:55:33.221Z,21.00
2019-05-13T11:56:37.617Z,21.02
2019-05-13T11:57:44.439Z,21.01
2019-05-13T11:58:48.225Z,21.01
2019-05-13T11:59:52.964Z,21.04
2019-05-13T12:01:01.836Z,21.06
2019-05-13T12:02:05.502Z,21.06
2019-05-13T12:03:10.949Z,21.07
2019-05-13T12:04:15.560Z,21.09
2019-05-13T12:05:22.595Z,21.08
2019-05-13T12:06:26.800Z,21.12
2019-05-13T12:07:32.955Z,21.13
2019-05-13T12:08:37.605Z,21.13
2019-05-13T12:09:41.977Z,21.16
2019-05-13T12:10:47.120Z,21.15
2019-05-13T12:11:51.653Z,21.16
2019-05-13T12:12:56.198Z,21.17
2019-05-13T12:14:00.576Z,21.18
2019-05-13T12:16:13.048Z,21.19
2019-05-13T12:17:17.787Z,21.21
2019-05-13T12:18:23.611Z,21.18
2019-05-13T12:19:28.706Z,21.19
2019-05-13T12:20:33.135Z,21.16
2019-05-13T12:21:43.321Z,21.19
2019-05-13T12:22:43.961Z,21.20
2019-05-13T12:23:48.509Z,21.15
2019-05-13T12:24:53.070Z,21.17
2019-05-13T12:25:58.927Z,21.20
2019-05-13T12:27:04.038Z,21.24
2019-05-13T12:28:11.248Z,21.21
2019-05-13T12:30:22.780Z,21.12
2019-05-13T12:31:27.276Z,21.11
2019-05-13T12:32:32.421Z,21.12
2019-05-13T12:33:36.964Z,21.15
2019-05-13T12:34:45.652Z,21.15
2019-05-13T12:35:47.623Z,21.19
2019-05-13T12:36:52.290Z,21.15
2019-05-13T12:37:56.672Z,21.17
2019-05-13T12:39:01.293Z,21.19
2019-05-13T12:40:07.380Z,21.23
2019-05-13T12:41:13.030Z,21.27
2019-05-13T12:42:17.590Z,21.31
2019-05-13T12:43:23.874Z,21.35
2019-05-13T12:44:28.397Z,21.37
2019-05-13T12:45:32.959Z,21.41
2019-05-13T12:46:37.502Z,21.38
2019-05-13T12:47:43.264Z,21.39
2019-05-13T12:48:47.783Z,21.40
2019-05-13T12:49:52.348Z,21.39
2019-05-13T12:50:56.758Z,21.40
2019-05-13T12:52:04.473Z,21.42
2019-05-13T12:53:07.493Z,21.39
2019-05-13T12:54:13.556Z,21.39
2019-05-13T12:55:18.231Z,21.37
2019-05-13T12:56:23.739Z,21.37
2019-05-13T12:57:28.312Z,21.34
2019-05-13T12:58:34.209Z,21.32
2019-05-13T12:59:38.793Z,21.32
2019-05-13T13:00:43.705Z,21.31
2019-05-13T13:01:48.189Z,21.32
2019-05-13T13:02:53.024Z,21.35
2019-05-13T13:03:57.522Z,21.38
2019-05-13T13:05:18.530Z,21.37
2019-05-13T13:06:30.005Z,21.34
2019-05-13T13:07:15.789Z,21.29
2019-05-13T13:08:38.221Z,21.32
2019-05-13T13:09:26.557Z,21.35
2019-05-13T13:10:34.483Z,21.36
2019-05-13T13:11:37.564Z,21.41
2019-05-13T13:12:42.222Z,21.47
2019-05-13T13:14:05.680Z,21.50
2019-05-13T13:14:54.394Z,21.52
2019-05-13T13:16:03.245Z,21.54
2019-05-13T13:17:05.562Z,21.54
2019-05-13T13:18:13.986Z,21.52
2019-05-13T13:19:16.224Z,21.50
2019-05-13T13:20:24.171Z,21.54
2019-05-13T13:21:33.544Z,21.55
2019-05-13T13:22:33.335Z,21.52
2019-05-13T13:23:37.817Z,21.50
2019-05-13T13:24:51.335Z,21.54
2019-05-13T13:25:52.881Z,21.53
2019-05-13T13:26:56.073Z,21.56
2019-05-13T13:28:10.587Z,21.57
2019-05-13T13:29:06.903Z,21.56
2019-05-13T13:30:11.505Z,21.55
2019-05-13T13:31:16.051Z,21.54
2019-05-13T13:32:24.014Z,21.50
2019-05-13T13:33:26.741Z,21.43
2019-05-13T13:34:33.760Z,21.44
2019-05-13T13:35:37.643Z,21.42
2019-05-13T13:36:46.152Z,21.41
2019-05-13T13:37:48.260Z,21.40
2019-05-13T13:38:56.085Z,21.42
2019-05-13T13:39:59.061Z,21.42
2019-05-13T13:41:04.334Z,21.42
2019-05-13T13:42:12.898Z,21.47
2019-05-13T13:43:15.776Z,21.49
2019-05-13T13:44:24.490Z,21.48
2019-05-13T13:45:26.746Z,21.44
2019-05-13T13:46:41.258Z,21.45
2019-05-13T13:47:37.475Z,21.40
2019-05-13T13:48:43.710Z,21.39
2019-05-13T13:49:48.221Z,21.40
2019-05-13T13:50:55.777Z,21.36
2019-05-13T13:51:59.044Z,21.38
2019-05-13T13:53:03.648Z,21.40
2019-05-13T13:54:08.176Z,21.40
2019-05-13T13:55:15.918Z,21.41
2019-05-13T13:56:25.317Z,21.38
2019-05-13T13:57:26.153Z,21.38
2019-05-13T13:58:32.604Z,21.33
2019-05-13T14:00:11.785Z,21.34
2019-05-13T14:00:55.883Z,21.35
2019-05-13T14:01:54.951Z,21.35
2019-05-13T14:02:57.604Z,21.37
2019-05-13T14:04:03.790Z,21.38
2019-05-13T14:05:08.408Z,21.35
2019-05-13T14:06:13.063Z,21.33
2019-05-13T14:06:25.607Z,19.41
2019-05-13T14:06:32.042Z,21.21
2019-05-13T14:07:12.860Z,21.16
2019-05-13T14:07:30.003Z,21.24